Time;durP1;ratioP1;P1;durP2;ratioP2;P2;SDS_P1;SDS_P2;PMS_P1;PMS_P2;Temp;Humidity;BMP_temperature;BMP_pressure;BME280_temperature;BME280_humidity;BME280_pressure;Samples;Min_cycle;Max_cycle;Signal;HPM_P1;HPM_P2
2021/12/29 00:01:15;;;;;;;8.65;1.80;;;7.60;86.90;;;5.90;100.00;94671.91;4945038;28;20043;-68
2021/12/29 00:03:44;;;;;;;9.93;1.83;;;7.60;86.10;;;5.94;100.00;94678.34;4952720;28;20030;-68
2021/12/29 00:06:10;;;;;;;9.70;1.63;;;7.60;85.50;;;5.98;100.00;94690.81;4946186;28;20043;-68
2021/12/29 00:08:36;;;;;;;8.30;1.88;;;7.70;86.00;;;6.03;100.00;94682.38;4946624;28;20043;-69
2021/12/29 00:11:01;;;;;;;10.98;2.30;;;7.70;85.80;;;6.03;100.00;94688.41;4956970;28;20038;-69
2021/12/29 00:13:28;;;;;;;6.43;1.48;;;7.70;86.00;;;6.05;100.00;94691.63;4948947;28;20061;-71
2021/12/29 00:15:57;;;;;;;10.23;1.98;;;7.80;85.60;;;6.08;100.00;94693.84;4929784;28;20553;-70
2021/12/29 00:18:31;;;;;;;11.65;2.50;;;7.70;85.40;;;6.10;100.00;94696.25;4948342;28;20061;-69
2021/12/29 00:20:57;;;;;;;8.95;1.65;;;7.70;85.50;;;6.09;100.00;94702.47;4959297;28;20043;-68
2021/12/29 00:23:26;;;;;;;9.55;2.22;;;7.70;85.40;;;6.12;100.00;94702.91;4927594;28;20059;-69
2021/12/29 00:25:52;;;;;;;9.98;2.47;;;7.80;84.80;;;6.13;100.00;94704.53;4943406;28;20344;-69
2021/12/29 00:28:18;;;;;;;9.95;2.08;;;7.80;84.60;;;6.16;100.00;94707.75;4937878;28;20118;-69
2021/12/29 00:30:44;;;;;;;7.80;1.83;;;7.80;84.80;;;6.18;100.00;94695.31;4947826;28;20133;-69
2021/12/29 00:33:11;;;;;;;10.90;2.90;;;7.80;84.70;;;6.21;100.00;94700.13;4951442;28;20082;-69
2021/12/29 00:35:41;;;;;;;9.15;1.95;;;7.80;84.40;;;6.23;100.00;94693.69;4948771;28;20047;-70
2021/12/29 00:38:09;;;;;;;9.85;1.85;;;7.80;84.00;;;6.24;99.58;94691.91;4942246;28;20430;-69
2021/12/29 00:40:35;;;;;;;9.18;1.98;;;7.90;84.10;;;6.27;99.63;94688.88;4963417;28;20058;-69
2021/12/29 00:43:01;;;;;;;7.97;1.83;;;7.90;84.50;;;6.27;99.18;94684.47;4967733;28;20035;-69
2021/12/29 00:45:31;;;;;;;9.15;2.05;;;7.90;83.90;;;6.31;99.28;94695.31;4952907;28;20054;-67
2021/12/29 00:47:56;;;;;;;8.88;1.85;;;7.90;83.70;;;6.33;99.10;94709.78;4955403;28;20050;-69
2021/12/29 00:50:22;;;;;;;8.95;2.03;;;7.90;83.70;;;6.35;98.51;94707.81;4963782;28;20493;-68
2021/12/29 00:52:48;;;;;;;7.47;1.90;;;8.00;83.70;;;6.37;98.31;94715.44;4950715;28;20035;-69
2021/12/29 00:55:14;;;;;;;10.15;1.88;;;8.00;83.70;;;6.37;98.41;94716.25;4972888;28;20509;-69
2021/12/29 00:57:40;;;;;;;8.95;1.95;;;8.00;83.70;;;6.39;97.91;94719.47;4968634;28;20046;-68
2021/12/29 01:00:19;;;;;;;7.72;1.60;;;8.00;83.30;;;6.42;97.65;94718.25;4933371;28;20118;-68
2021/12/29 01:02:48;;;;;;;6.88;1.63;;;8.00;83.50;;;6.41;98.15;94720.06;4943220;28;20121;-69
2021/12/29 01:05:14;;;;;;;8.68;1.75;;;8.00;83.50;;;6.43;97.90;94730.31;4954600;28;20458;-69
2021/12/29 01:07:42;;;;;;;8.98;1.50;;;8.00;83.20;;;6.43;97.94;94730.31;4951283;28;20054;-68
2021/12/29 01:10:08;;;;;;;8.13;1.88;;;8.00;83.50;;;6.44;97.72;94742.38;4951633;28;20035;-68
2021/12/29 01:12:38;;;;;;;6.40;1.58;;;8.10;83.30;;;6.46;97.29;94735.16;4963445;28;20451;-69
2021/12/29 01:15:05;;;;;;;6.27;1.27;;;8.10;83.00;;;6.47;97.49;94747.19;4947191;28;20118;-69
2021/12/29 01:17:31;;;;;;;9.20;2.10;;;8.10;83.40;;;6.48;98.15;94746.19;4959146;28;20039;-69
2021/12/29 01:19:58;;;;;;;6.90;1.75;;;8.10;83.40;;;6.49;97.39;94749.63;4967043;28;20038;-68
2021/12/29 01:22:24;;;;;;;9.18;1.90;;;8.10;83.10;;;6.50;97.51;94749.41;4935023;28;20043;-70
2021/12/29 01:24:50;;;;;;;6.82;1.73;;;8.10;82.90;;;6.52;96.72;94754.44;4943594;29;20035;-68
2021/12/29 01:27:16;;;;;;;7.43;1.70;;;8.10;82.50;;;6.54;96.66;94758.47;4976749;28;20094;-68
2021/12/29 01:29:42;;;;;;;11.02;1.70;;;8.10;82.50;;;6.56;96.71;94761.69;4937786;28;20034;-69
2021/12/29 01:32:08;;;;;;;8.85;2.13;;;8.10;82.40;;;6.59;96.39;94763.13;4954699;28;20042;-68
2021/12/29 01:34:35;;;;;;;8.05;1.75;;;8.20;82.10;;;6.59;96.08;94770.97;4934356;28;20776;-68
2021/12/29 01:37:01;;;;;;;7.70;1.70;;;8.20;82.00;;;6.60;95.85;94775.19;4956118;28;20046;-69
2021/12/29 01:39:27;;;;;;;6.15;1.30;;;8.20;82.00;;;6.60;95.93;94762.94;4932498;28;21902;-68
2021/12/29 01:41:55;;;;;;;8.35;1.95;;;8.20;81.80;;;6.62;95.55;94776.59;4948016;28;20134;-69
2021/12/29 01:44:31;;;;;;;8.55;1.63;;;8.20;82.20;;;6.64;95.05;94774.59;4947342;28;20130;-70
2021/12/29 01:46:58;;;;;;;11.52;2.00;;;8.20;81.90;;;6.64;95.39;94777.19;4958391;28;20119;-69
2021/12/29 01:49:24;;;;;;;9.43;1.77;;;8.20;82.00;;;6.65;94.95;94778.00;4930240;28;20490;-70
2021/12/29 01:52:01;;;;;;;9.18;1.65;;;8.20;82.40;;;6.64;95.93;94774.59;4943547;28;20091;-69
2021/12/29 01:54:26;;;;;;;8.55;1.67;;;8.20;82.40;;;6.64;95.30;94790.25;4930186;28;20051;-69
2021/12/29 01:56:57;;;;;;;8.20;1.95;;;8.20;82.10;;;6.65;95.16;94791.88;4953523;28;20058;-69
2021/12/29 01:59:24;;;;;;;9.02;1.65;;;8.20;82.50;;;6.64;95.64;94792.88;4962817;28;20149;-69
2021/12/29 02:01:50;;;;;;;8.82;2.20;;;8.10;82.50;;;6.63;96.02;94793.88;4948131;28;20410;-69
2021/12/29 02:04:17;;;;;;;7.15;1.35;;;8.20;83.00;;;6.63;95.79;94793.88;4941315;28;20032;-69
2021/12/29 02:06:42;;;;;;;10.07;1.73;;;8.20;82.80;;;6.62;95.92;94791.47;4952075;28;20038;-70
2021/12/29 02:09:09;;;;;;;8.98;1.60;;;8.10;82.50;;;6.61;95.76;94788.06;4949972;28;20082;-69
2021/12/29 02:11:37;;;;;;;11.18;2.00;;;8.10;82.80;;;6.61;95.90;94775.00;4949135;28;20028;-70
2021/12/29 02:14:05;;;;;;;11.88;1.98;;;8.10;82.80;;;6.61;95.29;94782.81;4947756;28;20450;-69
2021/12/29 02:16:31;;;;;;;8.80;2.05;;;8.10;82.30;;;6.59;95.37;94787.44;4963614;28;20035;-70
2021/12/29 02:19:04;;;;;;;8.95;1.60;;;8.20;82.30;;;6.63;95.03;94795.69;4947754;28;20081;-69
2021/12/29 02:21:30;;;;;;;8.38;1.90;;;8.20;82.30;;;6.63;94.79;94796.50;4968582;28;20677;-69
2021/12/29 02:26:45;;;;;;;9.32;1.60;;;8.20;82.20;;;6.63;94.97;94804.34;4959703;28;20055;-68
2021/12/29 02:29:15;;;;;;;6.53;1.40;;;8.20;82.10;;;6.65;94.76;94807.56;4965803;28;20041;-69
2021/12/29 02:31:41;;;;;;;7.95;2.05;;;8.20;81.90;;;6.65;94.83;94811.97;4933976;28;20027;-70
2021/12/29 02:34:08;;;;;;;10.57;2.15;;;8.20;81.80;;;6.65;95.04;94818.00;4948069;28;20395;-70
2021/12/29 02:36:35;;;;;;;9.88;1.95;;;8.20;81.90;;;6.66;95.17;94831.88;4947560;28;20113;-71
2021/12/29 02:39:04;;;;;;;10.40;2.00;;;8.30;81.90;;;6.65;94.98;94833.69;4934975;28;20038;-71
2021/12/29 02:41:31;;;;;;;9.68;1.80;;;8.20;82.20;;;6.66;94.81;94844.94;4940384;28;20113;-68
2021/12/29 02:44:01;;;;;;;10.40;1.98;;;8.30;81.80;;;6.67;94.28;94851.78;4961150;28;20042;-68
2021/12/29 02:46:28;;;;;;;10.83;2.17;;;8.30;81.80;;;6.65;94.70;94851.16;4976190;28;20042;-69
2021/12/29 02:48:59;;;;;;;9.32;1.90;;;8.20;81.70;;;6.65;94.19;94859.81;4934100;28;20035;-69
2021/12/29 02:51:26;;;;;;;11.65;2.15;;;8.20;82.00;;;6.66;94.66;94871.88;4980704;28;20046;-69
2021/12/29 02:53:52;;;;;;;8.40;1.90;;;8.20;82.00;;;6.65;94.24;94862.41;4951220;28;20085;-69
2021/12/29 02:56:25;;;;;;;10.77;2.38;;;8.20;82.00;;;6.64;94.83;94884.31;4947364;28;20078;-69
2021/12/29 02:58:51;;;;;;;11.27;2.30;;;8.20;82.10;;;6.65;94.64;94869.44;4949204;28;20042;-68
2021/12/29 03:01:17;;;;;;;12.32;2.65;;;8.20;82.20;;;6.64;94.90;94886.94;4956141;28;20498;-68
2021/12/29 03:03:43;;;;;;;12.15;2.30;;;8.20;82.30;;;6.62;94.78;94880.28;4965649;28;20524;-70
2021/12/29 03:06:09;;;;;;;12.93;3.80;;;8.20;82.30;;;6.62;95.26;94881.09;4922712;28;20106;-69
2021/12/29 03:08:35;;;;;;;13.15;3.35;;;8.20;82.60;;;6.60;94.89;94883.09;4946765;28;20046;-71
2021/12/29 03:11:02;;;;;;;11.20;2.17;;;8.10;82.80;;;6.58;95.70;94876.47;4952068;28;20384;-68
2021/12/29 03:13:36;;;;;;;12.60;2.58;;;8.10;83.10;;;6.59;95.58;94902.38;4919152;28;20479;-69
2021/12/29 03:16:03;;;;;;;11.75;2.45;;;8.10;83.30;;;6.57;95.39;94914.84;4951641;28;20089;-68
2021/12/29 03:18:29;;;;;;;11.35;2.08;;;8.10;83.40;;;6.56;96.02;94902.75;4947680;28;20047;-68
2021/12/29 03:20:55;;;;;;;13.57;2.50;;;8.10;83.60;;;6.55;96.37;94918.63;4942472;28;20043;-68
2021/12/29 03:23:21;;;;;;;12.35;2.03;;;8.10;83.80;;;6.53;96.20;94915.41;4961247;28;20403;-68
2021/12/29 03:25:51;;;;;;;8.88;2.15;;;8.10;83.90;;;6.51;96.49;94920.81;4947604;28;20040;-68
2021/12/29 03:28:18;;;;;;;9.33;1.97;;;8.10;83.70;;;6.50;96.67;94921.00;4969283;28;20046;-68
2021/12/29 03:30:48;;;;;;;14.27;2.03;;;8.00;84.00;;;6.47;96.51;94916.97;4950245;28;20820;-70
2021/12/29 03:33:14;;;;;;;11.73;3.53;;;8.00;84.30;;;6.45;96.89;94935.47;4937236;28;20031;-69
2021/12/29 03:35:42;;;;;;;10.07;3.50;;;7.90;84.70;;;6.44;97.11;94933.03;4942002;28;20089;-68
2021/12/29 03:38:14;;;;;;;10.50;2.45;;;7.90;84.50;;;6.43;97.35;94941.88;4939601;28;20031;-72
2021/12/29 03:40:41;;;;;;;10.10;2.30;;;7.90;84.70;;;6.41;97.38;94942.06;4948406;28;20039;-69
2021/12/29 03:43:08;;;;;;;12.15;2.15;;;7.90;84.70;;;6.42;97.90;94940.25;4939598;28;20086;-71
2021/12/29 03:45:34;;;;;;;9.00;1.83;;;7.90;84.50;;;6.41;97.43;94936.84;4946135;28;20050;-68
2021/12/29 03:48:00;;;;;;;8.13;1.65;;;8.00;84.70;;;6.41;97.83;94946.50;4949982;28;20065;-68
2021/12/29 03:50:26;;;;;;;9.38;2.00;;;7.90;84.60;;;6.41;97.68;94942.06;4946367;28;20058;-68
2021/12/29 03:52:52;;;;;;;10.10;1.70;;;7.90;84.80;;;6.40;97.93;94939.66;4948951;28;20055;-68
2021/12/29 03:55:18;;;;;;;7.82;1.45;;;7.90;85.10;;;6.39;98.06;94953.72;4961465;28;20114;-69
2021/12/29 03:57:44;;;;;;;9.63;2.92;;;7.90;85.10;;;6.40;98.09;94968.38;4967076;28;20573;-68
2021/12/29 04:00:13;;;;;;;9.70;1.90;;;7.90;85.30;;;6.39;98.63;94953.72;4978632;28;20078;-69
2021/12/29 04:02:39;;;;;;;11.18;2.75;;;7.80;85.30;;;6.39;98.29;94953.72;4951578;28;20426;-69
2021/12/29 04:05:06;;;;;;;8.50;2.60;;;7.90;85.50;;;6.39;98.30;94958.94;4933514;28;20090;-69
2021/12/29 04:07:32;;;;;;;8.23;2.35;;;7.90;84.90;;;6.39;98.15;94962.34;4927969;28;20035;-69
2021/12/29 04:09:58;;;;;;;12.45;4.95;;;7.90;84.60;;;6.42;98.23;94966.38;4970450;28;20050;-69
2021/12/29 04:12:24;;;;;;;9.23;3.22;;;7.90;84.90;;;6.43;98.31;94978.44;4948286;28;20038;-69
2021/12/29 04:14:49;;;;;;;10.00;2.38;;;8.00;84.20;;;6.45;97.78;94971.22;4948057;28;20571;-68
2021/12/29 04:17:18;;;;;;;8.48;1.73;;;8.00;84.40;;;6.46;97.95;94975.44;4927749;28;20542;-68
2021/12/29 04:22:29;;;;;;;12.18;1.73;;;8.10;83.70;;;6.49;97.57;94984.69;4968975;28;20042;-67
2021/12/29 04:24:55;;;;;;;6.28;1.40;;;8.10;83.80;;;6.50;97.19;94976.66;4977266;28;20039;-68
2021/12/29 04:27:23;;;;;;;6.75;1.60;;;8.10;83.20;;;6.50;96.58;94981.91;4934650;29;20051;-68
2021/12/29 04:29:52;;;;;;;6.75;1.60;;;8.10;83.30;;;6.52;96.85;94985.13;4944102;28;20045;-68
2021/12/29 04:32:18;;;;;;;5.68;1.33;;;8.10;83.30;;;6.52;96.67;94992.97;4961157;28;20498;-68
2021/12/29 04:34:44;;;;;;;6.60;1.58;;;8.10;83.30;;;6.54;96.54;94992.75;4939470;29;20122;-69
2021/12/29 04:37:12;;;;;;;8.65;1.40;;;8.10;83.10;;;6.56;96.61;95001.22;4934757;28;20114;-68
2021/12/29 04:39:38;;;;;;;6.72;1.30;;;8.20;83.20;;;6.55;96.70;95005.63;4961302;28;20039;-68
2021/12/29 04:42:04;;;;;;;8.07;1.58;;;8.10;83.10;;;6.57;95.86;95016.72;4951730;28;20465;-68
2021/12/29 04:44:30;;;;;;;6.97;1.13;;;8.10;83.00;;;6.56;96.67;95007.25;4949765;28;20034;-67
2021/12/29 04:46:57;;;;;;;4.32;1.20;;;8.10;83.20;;;6.57;96.37;95003.66;4941790;28;20521;-67
2021/12/29 04:49:29;;;;;;;6.95;1.40;;;8.10;83.00;;;6.58;96.44;95014.91;4949342;29;20031;-68
2021/12/29 04:52:02;;;;;;;6.78;1.25;;;8.10;83.30;;;6.60;96.08;95020.75;4944634;29;20051;-68
2021/12/29 04:54:28;;;;;;;6.30;1.23;;;8.20;83.20;;;6.58;96.37;95009.69;4966016;28;20097;-68
2021/12/29 04:56:55;;;;;;;9.43;1.45;;;8.10;83.10;;;6.58;95.96;95026.19;4952385;28;20135;-68
2021/12/29 04:59:22;;;;;;;3.00;0.77;;;8.10;83.40;;;6.59;95.92;95022.56;4962370;28;20176;-68
2021/12/29 05:01:47;;;;;;;4.57;0.98;;;8.20;83.30;;;6.59;95.88;95030.41;4959557;28;20039;-69
2021/12/29 05:04:20;;;;;;;5.57;1.15;;;8.20;83.10;;;6.59;96.29;95034.81;4967676;28;20062;-69
2021/12/29 05:09:34;;;;;;;5.95;2.30;;;8.20;83.00;;;6.56;96.04;95032.56;4953224;28;20131;-69
2021/12/29 05:12:01;;;;;;;13.00;7.40;;;8.10;83.10;;;6.58;96.57;95039.25;4932076;28;20037;-68
2021/12/29 05:14:28;;;;;;;8.65;1.60;;;8.10;83.30;;;6.58;96.41;95046.28;4965447;28;20035;-69
2021/12/29 05:16:54;;;;;;;4.68;0.80;;;8.10;83.20;;;6.58;96.03;95047.06;4938824;28;20031;-69
2021/12/29 05:19:19;;;;;;;4.35;1.10;;;8.20;83.10;;;6.57;95.64;95053.31;4945128;28;20053;-69
2021/12/29 05:21:45;;;;;;;4.28;1.23;;;8.10;83.10;;;6.58;96.31;95060.13;4956804;28;20043;-69
2021/12/29 05:24:11;;;;;;;7.63;2.85;;;8.10;83.30;;;6.58;96.36;95067.16;4968641;28;20050;-69
2021/12/29 05:26:36;;;;;;;8.05;2.05;;;8.10;83.20;;;6.59;95.84;95074.81;4947986;29;20043;-68
2021/12/29 05:29:02;;;;;;;6.18;2.53;;;8.10;83.00;;;6.60;95.93;95071.22;4952917;29;20032;-69
2021/12/29 05:31:28;;;;;;;5.85;1.40;;;8.20;83.10;;;6.61;96.15;95078.03;4935309;28;20038;-69
2021/12/29 05:33:55;;;;;;;4.45;1.00;;;8.10;83.40;;;6.60;96.52;95092.09;4955435;28;20125;-69
2021/12/29 05:36:24;;;;;;;3.30;0.85;;;8.20;83.30;;;6.60;96.46;95099.13;4967326;28;20035;-69
2021/12/29 05:38:52;;;;;;;5.50;1.33;;;8.10;83.40;;;6.61;96.14;95098.94;4939770;28;20031;-69
2021/12/29 05:41:18;;;;;;;8.98;2.03;;;8.20;83.50;;;6.63;96.36;95101.38;4954928;28;20551;-69
2021/12/29 05:43:44;;;;;;;5.25;1.00;;;8.10;83.60;;;6.62;96.68;95086.69;4935697;29;20151;-69
2021/12/29 05:46:10;;;;;;;5.10;1.20;;;8.10;83.60;;;6.60;96.60;95089.50;4948359;28;20517;-68
2021/12/29 05:48:36;;;;;;;7.18;1.27;;;8.10;83.80;;;6.60;96.18;95086.06;4954840;28;20031;-68
2021/12/29 05:51:02;;;;;;;4.80;0.90;;;8.10;83.70;;;6.60;96.56;95094.72;4956777;28;20452;-68
2021/12/29 05:53:27;;;;;;;3.42;0.90;;;8.10;83.90;;;6.60;96.79;95105.16;4946698;29;20032;-68
2021/12/29 05:55:53;;;;;;;6.97;1.17;;;8.20;83.70;;;6.59;96.74;95106.16;4965735;28;20047;-68
2021/12/29 05:58:19;;;;;;;6.22;1.02;;;8.10;84.00;;;6.59;97.39;95116.63;4946247;28;20071;-68
2021/12/29 06:00:45;;;;;;;5.00;0.88;;;8.10;84.10;;;6.59;97.55;95128.88;4949406;29;20043;-70
2021/12/29 06:03:10;;;;;;;4.53;1.13;;;8.10;84.50;;;6.59;97.65;95129.69;4959838;28;20041;-70
2021/12/29 06:05:37;;;;;;;4.38;1.00;;;8.10;84.90;;;6.58;97.90;95125.47;4946454;28;20043;-70
2021/12/29 06:08:04;;;;;;;5.03;1.20;;;8.10;85.10;;;6.57;98.04;95133.47;4957292;28;20057;-69
2021/12/29 06:10:30;;;;;;;3.85;0.90;;;8.10;85.40;;;6.53;98.56;95127.00;4967709;28;20057;-72
2021/12/29 06:12:56;;;;;;;5.18;1.17;;;8.10;85.40;;;6.54;98.90;95137.25;4947593;28;20119;-69
2021/12/29 06:15:22;;;;;;;6.68;1.83;;;8.10;85.20;;;6.51;98.27;95137.63;4966173;28;20034;-71
2021/12/29 06:17:47;;;;;;;4.13;0.98;;;8.10;85.30;;;6.51;98.92;95145.47;4948210;28;20043;-71
2021/12/29 06:20:13;;;;;;;5.35;1.13;;;8.10;85.20;;;6.50;98.89;95149.06;4953826;28;20031;-70
2021/12/29 06:22:40;;;;;;;7.32;1.00;;;8.00;85.40;;;6.48;99.24;95153.69;4951480;29;20581;-72
2021/12/29 06:25:07;;;;;;;2.05;0.70;;;8.00;85.60;;;6.48;99.07;95155.50;4965872;28;20065;-71
2021/12/29 06:27:33;;;;;;;5.10;1.20;;;8.00;85.80;;;6.48;99.67;95158.09;4935476;28;20036;-70
2021/12/29 06:29:59;;;;;;;6.70;1.80;;;8.00;86.00;;;6.47;99.94;95162.50;4954361;28;20038;-70
2021/12/29 06:32:26;;;;;;;9.15;4.63;;;8.10;87.10;;;6.47;100.00;95165.13;4953441;28;20114;-74
2021/12/29 06:34:51;;;;;;;7.40;1.50;;;8.00;87.60;;;6.45;100.00;95169.72;4965447;28;20046;-69
2021/12/29 06:37:17;;;;;;;5.93;1.40;;;8.00;87.60;;;6.43;100.00;95185.59;4970088;28;20497;-69
2021/12/29 06:39:45;;;;;;;7.13;1.63;;;8.00;87.50;;;6.42;100.00;95191.00;4934768;29;20035;-69
2021/12/29 06:42:13;;;;;;;6.53;1.30;;;7.90;87.60;;;6.38;100.00;95192.38;4943283;28;20039;-70
2021/12/29 06:44:39;;;;;;;4.22;1.10;;;7.80;87.90;;;6.35;100.00;95197.97;4942850;29;20047;-69
2021/12/29 06:47:05;;;;;;;6.00;1.35;;;7.80;88.10;;;6.31;100.00;95191.47;4954390;28;20062;-69
2021/12/29 06:49:31;;;;;;;10.73;1.83;;;7.80;88.20;;;6.31;100.00;95196.69;4949782;28;20146;-70
2021/12/29 06:51:56;;;;;;;8.73;1.60;;;7.80;88.30;;;6.31;100.00;95202.72;4952770;28;20267;-69
2021/12/29 06:54:22;;;;;;;8.10;1.50;;;7.80;88.20;;;6.30;100.00;95221.19;4969577;28;20180;-69
2021/12/29 06:56:48;;;;;;;10.05;1.70;;;7.80;88.10;;;6.28;100.00;95207.50;4968596;28;20027;-69
2021/12/29 06:59:14;;;;;;;6.40;1.83;;;7.90;88.00;;;6.29;100.00;95222.19;4954126;28;20612;-70
2021/12/29 07:01:39;;;;;;;8.35;1.65;;;7.90;87.90;;;6.29;100.00;95235.25;4975372;28;20039;-68
2021/12/29 07:04:05;;;;;;;6.90;1.40;;;7.90;87.90;;;6.27;100.00;95245.06;4997706;28;20130;-69
2021/12/29 07:06:31;;;;;;;6.22;1.33;;;7.80;87.90;;;6.27;100.00;95253.72;4967712;28;20088;-69
2021/12/29 07:08:56;;;;;;;6.05;1.27;;;7.90;88.10;;;6.26;100.00;95248.66;4937729;29;20046;-69
2021/12/29 07:11:22;;;;;;;11.73;1.60;;;7.80;88.60;;;6.25;100.00;95241.84;4936585;28;20035;-69
2021/12/29 07:13:49;;;;;;;6.35;1.17;;;7.80;88.50;;;6.24;100.00;95242.81;4984702;28;20142;-69
2021/12/29 07:16:15;;;;;;;7.93;1.63;;;7.80;88.70;;;6.23;100.00;95249.03;4958976;28;20499;-70
2021/12/29 07:18:40;;;;;;;6.38;1.27;;;7.80;88.90;;;6.22;100.00;95252.66;4945217;29;20039;-71
2021/12/29 07:21:06;;;;;;;7.20;1.20;;;7.80;88.80;;;6.23;100.00;95256.88;4954052;28;20113;-71
2021/12/29 07:23:32;;;;;;;8.77;1.40;;;7.80;88.50;;;6.23;100.00;95262.09;4985907;28;20043;-69
2021/12/29 07:25:58;;;;;;;5.57;1.40;;;7.90;88.50;;;6.23;100.00;95262.09;4949500;28;20066;-65
2021/12/29 07:28:23;;;;;;;6.00;1.27;;;7.80;88.50;;;6.22;100.00;95250.03;4935816;28;20518;-66
2021/12/29 07:30:49;;;;;;;6.35;1.30;;;7.80;88.70;;;6.23;100.00;95247.25;4985260;28;20054;-68
2021/12/29 07:33:15;;;;;;;8.27;1.88;;;7.90;88.40;;;6.23;100.00;95252.47;4962945;28;20126;-66
2021/12/29 07:35:40;;;;;;;8.70;1.60;;;7.90;88.20;;;6.22;100.00;95250.03;4961881;28;20040;-68
2021/12/29 07:38:06;;;;;;;8.60;1.23;;;7.90;88.30;;;6.23;100.00;95256.88;4975912;28;20114;-70
2021/12/29 07:40:34;;;;;;;6.32;1.48;;;7.90;88.30;;;6.22;100.00;95263.09;4951066;28;20432;-71
2021/12/29 07:43:01;;;;;;;4.82;1.45;;;7.80;88.50;;;6.22;100.00;95270.94;4996259;28;20086;-70
2021/12/29 07:45:27;;;;;;;5.97;1.30;;;7.80;88.60;;;6.19;100.00;95281.75;4935875;28;20031;-69
2021/12/29 07:47:53;;;;;;;7.65;1.30;;;7.70;89.00;;;6.20;100.00;95280.75;4932643;28;20035;-70
2021/12/29 07:50:19;;;;;;;5.60;1.40;;;7.80;88.90;;;6.21;100.00;95282.38;4960905;28;20031;-70
2021/12/29 07:52:48;;;;;;;8.55;2.00;;;7.90;88.60;;;6.20;100.00;95281.56;4948215;29;20134;-69
2021/12/29 07:55:17;;;;;;;6.55;1.75;;;7.80;88.60;;;6.21;100.00;95280.56;4960564;28;20023;-70
2021/12/29 07:57:43;;;;;;;6.10;1.70;;;7.80;88.80;;;6.23;100.00;95288.22;4959074;28;20476;-67
2021/12/29 08:00:10;;;;;;;5.68;1.40;;;7.90;88.40;;;6.25;100.00;95291.44;4931774;28;20054;-69
2021/12/29 08:02:36;;;;;;;9.02;1.50;;;7.90;88.10;;;6.27;100.00;95294.69;4936099;28;20035;-67
2021/12/29 08:05:04;;;;;;;4.72;1.20;;;8.00;88.10;;;6.31;100.00;95295.94;4949774;28;20035;-72
2021/12/29 08:07:30;;;;;;;5.28;1.20;;;8.00;88.00;;;6.31;100.00;95306.38;4953118;28;20027;-70
2021/12/29 08:09:56;;;;;;;6.93;1.20;;;8.00;88.10;;;6.33;100.00;95320.06;4952889;28;20062;-70
2021/12/29 08:12:22;;;;;;;4.47;1.10;;;8.00;88.10;;;6.33;100.00;95326.09;4936011;28;20403;-74
2021/12/29 08:14:49;;;;;;;4.32;1.10;;;8.00;87.90;;;6.35;100.00;95324.13;4920344;28;20562;-69
2021/12/29 08:17:15;;;;;;;7.65;1.77;;;8.10;88.10;;;6.36;100.00;95322.34;4952013;28;20371;-71
2021/12/29 08:19:41;;;;;;;6.35;1.48;;;8.10;88.10;;;6.35;100.00;95325.94;4945698;28;20036;-71
2021/12/29 08:22:07;;;;;;;5.68;1.10;;;8.00;88.10;;;6.34;100.00;95327.75;4956186;28;20418;-72
2021/12/29 08:24:33;;;;;;;6.35;1.13;;;7.90;88.30;;;6.34;100.00;95319.09;4952902;28;20125;-73
2021/12/29 08:26:58;;;;;;;7.32;1.40;;;7.90;88.20;;;6.35;100.00;95315.50;4967631;28;20027;-69
2021/12/29 08:29:24;;;;;;;5.60;1.20;;;7.90;88.10;;;6.35;100.00;95307.66;4982053;28;20039;-74
2021/12/29 08:31:50;;;;;;;6.05;1.45;;;7.90;87.90;;;6.36;100.00;95319.72;4968057;28;20126;-78
2021/12/29 08:34:16;;;;;;;5.78;0.98;;;8.00;87.50;;;6.40;100.00;95311.34;4978069;28;20034;-72
2021/12/29 08:36:42;;;;;;;7.07;1.40;;;8.10;87.20;;;6.47;100.00;95306.19;4967282;28;20042;-70
2021/12/29 08:39:07;;;;;;;8.18;1.42;;;8.30;86.90;;;6.53;100.00;95315.09;4963275;28;20038;-70
2021/12/29 08:41:33;;;;;;;4.30;1.40;;;8.20;86.60;;;6.56;100.00;95325.97;4934177;28;20042;-70
2021/12/29 08:43:59;;;;;;;5.75;1.30;;;8.20;86.50;;;6.60;100.00;95316.81;4966849;28;20125;-71
2021/12/29 08:46:25;;;;;;;7.65;1.45;;;8.30;86.10;;;6.65;100.00;95321.47;4971704;28;20038;-69
2021/12/29 08:48:51;;;;;;;4.80;1.10;;;8.30;86.20;;;6.66;100.00;95321.28;4953008;28;20035;-70
2021/12/29 08:51:19;;;;;;;6.15;1.50;;;8.40;85.80;;;6.73;100.00;95321.34;4954751;28;20086;-73
2021/12/29 08:53:45;;;;;;;5.47;1.20;;;8.40;86.00;;;6.76;100.00;95321.78;4938028;28;20053;-71
2021/12/29 08:56:12;;;;;;;3.92;0.82;;;8.50;85.20;;;6.80;100.00;95324.06;4939212;28;20517;-68
2021/12/29 08:58:38;;;;;;;6.47;1.42;;;8.60;85.20;;;6.86;100.00;95325.94;4948647;28;20133;-69
2021/12/29 09:01:04;;;;;;;7.63;1.60;;;8.60;84.90;;;6.89;100.00;95331.59;4977196;28;20458;-70
2021/12/29 09:03:30;;;;;;;6.13;1.90;;;8.60;84.70;;;6.94;100.00;95336.28;4955660;28;20039;-73
2021/12/29 09:05:55;;;;;;;4.47;1.27;;;8.70;84.70;;;6.97;100.00;95344.53;4986142;28;20037;-72
2021/12/29 09:08:21;;;;;;;14.10;6.25;;;8.70;84.60;;;7.02;100.00;95352.66;4960079;28;20027;-70
2021/12/29 09:10:47;;;;;;;6.28;2.58;;;8.90;84.20;;;7.09;100.00;95365.81;4962751;28;20062;-70
2021/12/29 09:13:14;;;;;;;4.85;1.60;;;9.00;83.90;;;7.15;100.00;95370.28;5003015;28;20079;-70
2021/12/29 09:15:39;;;;;;;6.95;1.35;;;9.10;83.30;;;7.20;100.00;95370.53;4958285;28;20129;-70
2021/12/29 09:18:05;;;;;;;5.88;1.67;;;9.10;83.50;;;7.22;100.00;95384.22;4953710;28;20101;-71
2021/12/29 09:20:33;;;;;;;4.88;1.40;;;9.00;84.00;;;7.23;100.00;95375.38;4922102;28;20043;-70
2021/12/29 09:23:05;;;;;;;5.75;1.50;;;9.00;84.30;;;7.24;100.00;95384.88;4922296;29;20051;-67
2021/12/29 09:25:31;;;;;;;4.18;1.30;;;9.00;84.20;;;7.26;100.00;95393.34;4950601;28;20031;-68
2021/12/29 09:27:57;;;;;;;4.80;1.23;;;9.00;84.30;;;7.29;100.00;95385.13;4959198;28;20042;-69
2021/12/29 09:30:25;;;;;;;4.63;1.08;;;9.10;84.00;;;7.32;100.00;95390.00;4936103;28;20411;-71
2021/12/29 09:32:51;;;;;;;4.60;1.10;;;9.10;83.80;;;7.40;100.00;95385.63;4963298;28;20074;-73
2021/12/29 09:35:19;;;;;;;4.32;1.17;;;9.40;83.40;;;7.46;99.78;95375.22;4987428;28;20034;-74
2021/12/29 09:37:46;;;;;;;5.05;1.38;;;9.50;82.30;;;7.57;100.00;95373.91;4959785;28;20694;-69
2021/12/29 09:40:13;;;;;;;5.15;1.05;;;9.80;82.00;;;7.67;99.68;95377.00;4957471;28;20085;-69
2021/12/29 09:42:38;;;;;;;5.60;1.27;;;10.00;81.00;;;7.78;99.20;95379.13;4956101;28;20410;-70
2021/12/29 09:45:06;;;;;;;6.32;1.48;;;10.20;80.00;;;7.90;98.57;95376.78;4937994;28;20256;-71
2021/12/29 09:47:33;;;;;;;5.75;1.60;;;10.30;79.30;;;8.03;98.89;95390.00;4975633;28;20534;-72
2021/12/29 09:50:00;;;;;;;3.83;1.25;;;10.60;78.50;;;8.14;97.63;95372.94;4970797;28;20495;-72
2021/12/29 09:52:29;;;;;;;3.13;1.10;;;10.80;77.60;;;8.28;96.94;95369.41;4954884;28;20058;-71
2021/12/29 09:54:56;;;;;;;7.05;1.38;;;11.10;76.40;;;8.47;96.10;95367.94;4986047;28;20038;-71
2021/12/29 09:57:22;;;;;;;3.38;0.90;;;11.50;75.00;;;8.68;95.90;95386.19;4979933;28;20570;-71
2021/12/29 09:59:48;;;;;;;3.67;1.05;;;11.90;73.50;;;8.85;95.32;95381.44;4963700;28;20038;-70
2021/12/29 10:02:13;;;;;;;4.28;1.35;;;12.00;72.10;;;8.94;93.46;95382.88;4939199;28;20038;-70
2021/12/29 10:04:39;;;;;;;3.40;1.02;;;11.40;74.30;;;8.94;93.07;95385.50;4968370;28;20407;-68
2021/12/29 10:07:13;;;;;;;5.80;1.20;;;11.10;75.20;;;8.95;91.95;95384.50;5001286;28;20065;-68
2021/12/29 10:09:39;;;;;;;2.58;0.55;;;11.00;75.60;;;8.97;92.08;95385.09;4951317;28;20134;-72
2021/12/29 10:12:08;;;;;;;5.03;0.82;;;11.00;76.10;;;8.96;91.92;95383.50;4967794;28;20045;-68
2021/12/29 10:14:34;;;;;;;3.67;0.90;;;11.00;77.10;;;9.03;93.35;95383.50;4936119;28;20039;-67
2021/12/29 10:17:00;;;;;;;4.95;1.05;;;11.30;75.80;;;9.11;92.39;95385.97;5000746;28;20545;-73
2021/12/29 10:19:25;;;;;;;3.45;0.90;;;11.90;74.40;;;9.33;92.99;95386.66;4938052;28;20075;-73
2021/12/29 10:21:51;;;;;;;2.42;1.00;;;13.10;71.20;;;9.55;92.61;95395.97;4955045;28;20039;-67
2021/12/29 10:24:19;;;;;;;3.90;0.90;;;13.40;69.30;;;9.76;91.97;95393.19;4950523;28;20062;-67
2021/12/29 10:26:48;;;;;;;5.18;1.02;;;13.20;69.70;;;9.92;91.59;95393.78;4969533;28;20110;-66
2021/12/29 10:29:16;;;;;;;2.70;1.02;;;13.10;70.10;;;10.03;90.40;95390.56;4979498;28;20505;-66
2021/12/29 10:31:49;;;;;;;5.07;1.15;;;12.80;70.60;;;10.04;89.41;95392.16;4963476;28;20039;-69
2021/12/29 10:34:21;;;;;;;4.90;1.10;;;12.50;71.20;;;10.04;88.28;95402.69;4961192;28;20122;-67